Time;durP1;ratioP1;P1;durP2;ratioP2;P2;SDS_P1;SDS_P2;PMS_P1;PMS_P2;Temp;Humidity;BMP_temperature;BMP_pressure;BME280_temperature;BME280_humidity;BME280_pressure;Samples;Min_cycle;Max_cycle;Signal;HPM_P1;HPM_P2
2022/08/23 00:01:12;;;;;;;3.03;2.72;;;;;;;21.74;53.21;93289.16;4862315;29;20044;-90
2022/08/23 00:03:38;;;;;;;3.53;2.80;;;;;;;21.74;53.29;93288.41;4866238;29;20485;-90
2022/08/23 00:06:04;;;;;;;3.00;2.70;;;;;;;21.75;53.23;93284.38;4813471;29;20105;-88
2022/08/23 00:08:30;;;;;;;2.75;2.55;;;;;;;21.76;53.28;93286.59;4831749;29;20041;-88
2022/08/23 00:10:56;;;;;;;3.25;2.95;;;;;;;21.76;53.15;93288.63;4841438;29;20034;-88
2022/08/23 00:13:21;;;;;;;3.38;2.80;;;;;;;21.74;53.13;93285.66;4844381;29;20337;-91
2022/08/23 00:15:47;;;;;;;2.70;2.50;;;;;;;21.76;53.27;93274.84;4832723;29;20096;-92
2022/08/23 00:18:14;;;;;;;3.17;2.85;;;;;;;21.75;52.85;93278.88;4847638;29;20042;-91
2022/08/23 00:20:39;;;;;;;3.17;2.85;;;;;;;21.75;53.24;93278.88;4869594;29;20065;-88
2022/08/23 00:23:05;;;;;;;4.40;2.80;;;;;;;21.74;53.11;93277.41;4872979;29;20046;-89
2022/08/23 00:25:30;;;;;;;3.13;2.63;;;;;;;21.74;53.19;93271.91;4814081;29;20047;-88
2022/08/23 00:27:56;;;;;;;3.03;2.72;;;;;;;21.72;53.10;93271.69;4844312;29;20042;-89
2022/08/23 00:30:21;;;;;;;2.85;2.65;;;;;;;21.72;53.26;93261.44;4813542;29;21971;-89
2022/08/23 00:32:47;;;;;;;3.08;2.78;;;;;;;21.74;53.09;93263.66;4833804;29;20046;-90
2022/08/23 00:35:13;;;;;;;3.45;2.97;;;;;;;21.73;52.96;93260.16;4813241;29;20049;-89
2022/08/23 00:37:38;;;;;;;3.58;2.92;;;;;;;21.74;53.05;93263.66;4813312;29;20493;-89
2022/08/23 00:40:07;;;;;;;3.58;3.00;;;;;;;21.72;53.20;93255.19;4812995;29;20359;-88
2022/08/23 00:48:29;;;;;;;3.00;2.70;;;;;;;21.72;53.01;93261.44;4859403;29;20081;-89
2022/08/23 00:50:56;;;;;;;3.17;2.88;;;;;;;21.72;53.13;93260.69;4831269;29;20037;-89
2022/08/23 00:53:27;;;;;;;2.78;2.53;;;;;;;21.76;52.95;93261.09;4891536;29;20037;-89
2022/08/23 00:55:56;;;;;;;2.83;2.63;;;;;;;21.74;53.09;93252.63;4813480;29;20052;-89
2022/08/23 00:58:22;;;;;;;3.15;2.72;;;;;;;21.73;52.84;93253.91;4827905;29;21630;-88
2022/08/23 01:00:48;;;;;;;3.28;2.63;;;;;;;21.74;53.12;93253.38;4827947;29;20066;-89
2022/08/23 01:03:14;;;;;;;2.60;2.40;;;;;;;21.72;52.94;93253.16;4842543;29;20036;-89
2022/08/23 01:05:52;;;;;;;3.05;2.75;;;;;;;21.75;52.97;93251.38;4814035;29;20042;-89
2022/08/23 01:08:18;;;;;;;3.45;3.08;;;;;;;21.73;53.13;93253.91;4828604;29;20065;-91
2022/08/23 01:10:49;;;;;;;3.45;2.63;;;;;;;21.73;52.96;93246.41;4827962;29;20131;-89
2022/08/23 01:13:38;;;;;;;2.50;2.30;;;;;;;21.73;52.88;93257.41;4845571;29;20037;-89
2022/08/23 01:16:15;;;;;;;3.58;2.70;;;;;;;21.73;52.79;93254.66;4856051;29;20036;-89
2022/08/23 01:18:42;;;;;;;3.05;2.75;;;;;;;21.71;52.86;93240.69;4827393;29;20045;-88
2022/08/23 01:21:27;;;;;;;3.58;3.10;;;;;;;21.73;53.06;93245.66;4822298;29;20047;-89
2022/08/23 01:23:56;;;;;;;3.13;2.83;;;;;;;21.74;52.86;93245.13;4823956;29;20577;-90
2022/08/23 01:26:22;;;;;;;3.08;2.70;;;;;;;21.71;52.83;93250.94;4812811;29;20550;-89
2022/08/23 01:28:48;;;;;;;3.47;3.10;;;;;;;21.72;52.82;93255.91;4812875;29;20053;-90
2022/08/23 01:31:13;;;;;;;3.28;2.95;;;;;;;21.73;52.74;93249.16;4822210;29;20237;-88
2022/08/23 01:33:39;;;;;;;4.90;3.42;;;;;;;21.72;53.04;93253.16;4821956;29;20118;-88
2022/08/23 01:36:06;;;;;;;3.42;3.13;;;;;;;21.74;52.90;93256.13;4825708;29;20042;-88
2022/08/23 01:38:31;;;;;;;2.90;2.65;;;;;;;21.74;52.79;93241.63;4823535;29;20054;-88
2022/08/23 01:40:57;;;;;;;3.58;2.85;;;;;;;21.74;52.67;93250.63;4853332;29;20767;-93
2022/08/23 01:43:22;;;;;;;3.03;2.72;;;;;;;21.74;52.94;93255.38;4838037;29;20053;-88
2022/08/23 01:45:48;;;;;;;3.38;3.08;;;;;;;21.73;52.65;93254.66;4825489;29;20041;-89
2022/08/23 01:48:14;;;;;;;3.22;2.88;;;;;;;21.71;52.85;93254.44;4807550;29;20052;-88
2022/08/23 01:50:39;;;;;;;3.88;3.35;;;;;;;21.70;52.96;93255.72;4838722;29;20112;-92
2022/08/23 01:53:07;;;;;;;3.35;3.05;;;;;;;21.71;52.99;93262.69;4842628;29;20042;-88
2022/08/23 01:55:33;;;;;;;3.92;3.13;;;;;;;21.73;52.73;93257.41;4848500;29;20062;-89
2022/08/23 01:57:59;;;;;;;3.20;2.92;;;;;;;21.71;52.69;93251.69;4837675;29;20045;-88
2022/08/23 02:00:31;;;;;;;3.40;2.95;;;;;;;21.75;52.65;93260.34;4856293;29;20049;-89
2022/08/23 02:02:58;;;;;;;3.30;2.90;;;;;;;21.72;52.78;93258.69;4860429;29;20045;-89
2022/08/23 02:05:25;;;;;;;3.53;3.22;;;;;;;21.72;52.66;93255.19;4871577;29;20041;-88
2022/08/23 02:07:50;;;;;;;5.15;3.28;;;;;;;21.75;52.79;93257.59;4842744;29;20072;-88
2022/08/23 02:10:16;;;;;;;4.05;3.22;;;;;;;21.76;52.73;93259.09;4838350;29;20405;-88
2022/08/23 02:12:41;;;;;;;3.25;2.95;;;;;;;21.72;52.77;93250.41;4853971;29;20466;-88
2022/08/23 02:15:07;;;;;;;3.13;2.88;;;;;;;21.74;52.54;93247.13;4859547;29;20068;-88
2022/08/23 02:17:33;;;;;;;3.20;2.88;;;;;;;21.71;52.67;93251.69;4819264;29;20037;-90
2022/08/23 02:20:01;;;;;;;3.47;3.00;;;;;;;21.70;52.75;93246.72;4827266;29;20082;-88
2022/08/23 02:22:26;;;;;;;3.30;3.00;;;;;;;21.72;52.79;93247.66;4830075;29;20124;-88
2022/08/23 02:24:51;;;;;;;3.78;3.38;;;;;;;21.74;52.43;93236.88;4860885;29;20120;-88
2022/08/23 02:27:17;;;;;;;3.40;3.10;;;;;;;21.73;52.61;93246.41;4844115;29;20129;-93
2022/08/23 02:29:43;;;;;;;4.28;3.25;;;;;;;21.72;52.50;93244.91;4842158;29;20462;-88
2022/08/23 02:32:09;;;;;;;2.83;2.50;;;;;;;21.74;52.78;93239.63;4841269;29;20052;-89
2022/08/23 02:34:35;;;;;;;3.28;2.92;;;;;;;21.72;52.49;93246.94;4842597;29;20042;-89
2022/08/23 02:37:01;;;;;;;3.35;2.40;;;;;;;21.70;52.66;93239.22;4857590;29;20053;-88
2022/08/23 02:39:26;;;;;;;4.00;2.78;;;;;;;21.69;52.62;93251.50;4810982;29;20438;-89
2022/08/23 02:41:53;;;;;;;3.88;2.90;;;;;;;21.70;52.67;93249.47;4812014;29;20049;-89
2022/08/23 02:44:18;;;;;;;4.07;2.88;;;;;;;21.72;52.62;93250.41;4826450;29;20033;-88
2022/08/23 02:46:44;;;;;;;3.55;3.25;;;;;;;21.67;52.66;93262.28;4826906;29;20569;-92
2022/08/23 02:49:10;;;;;;;3.10;2.83;;;;;;;21.69;52.68;93262.50;4814688;29;20522;-89
2022/08/23 02:51:35;;;;;;;3.38;3.08;;;;;;;21.68;52.94;93252.03;4859670;29;20506;-88
2022/08/23 02:54:01;;;;;;;3.88;3.38;;;;;;;21.70;52.81;93252.22;4860925;29;20074;-88
2022/08/23 02:56:26;;;;;;;3.67;3.17;;;;;;;21.68;52.61;93261.00;4852855;29;20026;-89
2022/08/23 02:58:52;;;;;;;4.00;3.17;;;;;;;21.66;52.77;93252.56;4876475;29;20037;-90
2022/08/23 03:01:19;;;;;;;4.70;3.30;;;;;;;21.67;52.70;93267.78;4861529;29;20041;-90
2022/08/23 03:03:44;;;;;;;3.17;2.63;;;;;;;21.68;52.70;93260.28;4863870;29;20071;-89
2022/08/23 03:06:11;;;;;;;3.50;3.20;;;;;;;21.64;52.77;93260.63;4860877;29;20045;-89
2022/08/23 03:08:37;;;;;;;3.72;3.42;;;;;;;21.66;52.73;93258.06;4830368;29;20041;-89
2022/08/23 03:11:02;;;;;;;3.67;3.38;;;;;;;21.65;52.78;93255.88;4846104;29;20053;-90
2022/08/23 03:13:27;;;;;;;3.45;3.15;;;;;;;21.67;52.66;93256.78;4848994;29;20393;-88
2022/08/23 03:15:53;;;;;;;3.42;3.13;;;;;;;21.65;52.61;93259.34;4861414;29;20056;-90
2022/08/23 03:18:19;;;;;;;3.67;3.38;;;;;;;21.63;52.46;93253.66;4843951;29;20049;-88
2022/08/23 03:20:45;;;;;;;4.30;3.30;;;;;;;21.64;52.30;93252.38;4828011;29;20045;-89
2022/08/23 03:23:12;;;;;;;3.58;3.20;;;;;;;21.67;52.79;93256.03;4860026;29;20040;-89
2022/08/23 03:25:37;;;;;;;3.22;2.97;;;;;;;21.65;52.72;93250.38;4861238;29;20032;-90
2022/08/23 03:28:07;;;;;;;4.05;3.63;;;;;;;21.64;52.68;93257.88;4860363;29;20038;-89
2022/08/23 03:30:33;;;;;;;3.65;2.78;;;;;;;21.63;52.71;93264.66;4830128;29;20042;-95
2022/08/23 03:33:00;;;;;;;3.35;3.05;;;;;;;21.64;52.92;93257.88;4814658;29;20052;-90
2022/08/23 03:35:27;;;;;;;3.20;2.90;;;;;;;21.64;52.60;93270.91;4829900;29;20477;-89
2022/08/23 03:37:53;;;;;;;3.20;2.90;;;;;;;21.61;52.64;93263.72;4823280;29;20037;-88
2022/08/23 03:40:19;;;;;;;3.42;2.70;;;;;;;21.62;52.72;93263.19;4814602;29;20052;-90
2022/08/23 03:42:45;;;;;;;3.20;2.90;;;;;;;21.63;52.62;93259.16;4844631;29;20046;-88
2022/08/23 03:45:10;;;;;;;3.22;2.92;;;;;;;21.65;52.67;93264.13;4816243;29;20045;-88
2022/08/23 03:47:35;;;;;;;3.28;2.97;;;;;;;21.62;52.57;93265.94;4871785;29;20041;-89
2022/08/23 03:50:01;;;;;;;4.32;3.33;;;;;;;21.67;52.66;93261.56;4839980;29;20064;-87
2022/08/23 03:52:26;;;;;;;3.17;2.85;;;;;;;21.65;52.63;93264.84;4861212;29;20041;-89
2022/08/23 03:54:52;;;;;;;4.20;2.83;;;;;;;21.67;52.54;93270.53;4859577;29;20038;-88
2022/08/23 03:57:17;;;;;;;3.08;2.80;;;;;;;21.66;52.39;93271.81;4823627;29;20056;-89
2022/08/23 03:59:43;;;;;;;3.17;2.88;;;;;;;21.68;52.74;93276.78;4828215;29;20042;-89
2022/08/23 04:02:08;;;;;;;2.92;2.70;;;;;;;21.67;52.63;93273.28;4842576;29;20209;-89
2022/08/23 04:04:34;;;;;;;3.10;2.80;;;;;;;21.69;52.67;93281.00;4837012;29;20074;-90
2022/08/23 04:07:01;;;;;;;3.40;2.63;;;;;;;21.70;52.60;93279.75;4811840;29;20050;-88
2022/08/23 04:09:26;;;;;;;3.13;2.83;;;;;;;21.70;52.37;93283.22;4843619;29;20046;-88
2022/08/23 04:11:53;;;;;;;3.50;3.20;;;;;;;21.69;52.50;93281.00;4849962;29;20079;-92
2022/08/23 04:14:19;;;;;;;3.67;2.65;;;;;;;21.64;52.67;93285.38;4836676;29;20046;-87
2022/08/23 04:16:45;;;;;;;5.75;3.15;;;;;;;21.63;52.61;93285.94;4853092;29;20053;-89
2022/08/23 04:19:13;;;;;;;7.00;3.20;;;;;;;21.63;52.71;93283.16;4841594;29;20049;-87
2022/08/23 04:21:39;;;;;;;5.28;2.90;;;;;;;21.63;52.72;93291.44;4840841;29;20050;-87
2022/08/23 04:24:04;;;;;;;3.50;3.03;;;;;;;21.62;52.84;93281.69;4848369;29;20088;-86
2022/08/23 04:26:30;;;;;;;3.75;3.00;;;;;;;21.62;52.71;93287.19;4837755;29;20038;-87
2022/08/23 04:28:55;;;;;;;4.40;3.10;;;;;;;21.69;52.49;93286.50;4867999;29;20037;-87
2022/08/23 04:31:21;;;;;;;6.97;2.97;;;;;;;21.66;53.00;93293.81;4865833;29;20079;-86
2022/08/23 04:33:46;;;;;;;7.35;3.22;;;;;;;21.67;53.22;93286.31;4846554;29;20060;-89
2022/08/23 04:36:12;;;;;;;5.75;2.90;;;;;;;21.71;52.76;93292.97;4862881;29;20053;-86
2022/08/23 04:38:38;;;;;;;13.18;3.42;;;;;;;21.72;52.74;93299.19;4855922;29;20463;-85
2022/08/23 04:43:47;;;;;;;5.05;3.17;;;;;;;21.71;53.05;93301.22;4859730;29;20481;-86
2022/08/23 04:46:14;;;;;;;6.90;3.85;;;;;;;21.77;52.97;93298.34;4806866;29;20589;-85
2022/08/23 04:48:41;;;;;;;16.70;3.97;;;;;;;21.78;52.62;93297.81;4841633;29;20116;-87
2022/08/23 04:51:06;;;;;;;7.45;3.28;;;;;;;21.74;52.66;93297.41;4835986;29;20034;-86
2022/08/23 04:53:34;;;;;;;9.13;3.92;;;;;;;21.68;52.61;93302.28;4834005;29;20102;-88
2022/08/23 04:56:01;;;;;;;6.97;2.90;;;;;;;21.62;52.97;93306.44;4869182;29;20461;-86
2022/08/23 04:58:27;;;;;;;15.88;5.22;;;;;;;21.58;52.55;93298.53;4848478;29;20049;-87
2022/08/23 05:00:53;;;;;;;42.03;8.93;;;;;;;21.55;52.51;93299.59;4857486;29;20067;-87
2022/08/23 05:03:19;;;;;;;54.75;12.98;;;;;;;21.33;52.85;93316.56;4847580;29;20402;-87
2022/08/23 05:05:44;;;;;;;65.80;15.43;;;;;;;21.44;52.48;93308.81;4847848;29;20069;-93
2022/08/23 05:08:13;;;;;;;36.28;12.98;;;;;;;21.42;52.48;93321.66;4814328;29;20045;-89
2022/08/23 05:10:38;;;;;;;42.55;11.98;;;;;;;21.39;52.88;93320.69;4825785;29;20034;-91
2022/08/23 05:13:07;;;;;;;48.17;11.65;;;;;;;21.20;53.01;93320.84;4831636;29;20048;-93
2022/08/23 05:15:33;;;;;;;36.45;11.95;;;;;;;21.18;53.12;93320.59;4819813;29;20046;-89
2022/08/23 05:17:59;;;;;;;30.17;14.07;;;;;;;21.11;53.12;93318.50;4830918;29;20052;-89
2022/08/23 05:20:25;;;;;;;36.50;12.48;;;;;;;21.13;53.16;93317.97;4833193;29;20052;-88
2022/08/23 05:22:51;;;;;;;74.25;17.27;;;;;;;21.14;53.37;93316.69;4835031;29;20042;-90
2022/08/23 05:25:17;;;;;;;24.88;10.80;;;;;;;21.03;53.21;93316.91;4849932;29;20037;-89
2022/08/23 05:27:43;;;;;;;24.00;10.38;;;;;;;20.98;53.50;93323.28;4854731;29;20056;-90
2022/08/23 05:30:10;;;;;;;27.38;10.93;;;;;;;20.87;53.97;93319.47;4822233;29;20037;-91
2022/08/23 05:32:35;;;;;;;17.25;8.40;;;;;;;20.83;54.10;93321.03;4808800;29;20050;-91
2022/08/23 05:35:00;;;;;;;17.60;8.52;;;;;;;20.91;53.91;93327.38;4842379;29;20310;-91
2022/08/23 05:37:35;;;;;;;18.88;11.75;;;;;;;20.88;54.06;93326.44;4853038;29;20057;-93
2022/08/23 05:40:00;;;;;;;51.50;20.42;;;;;;;20.77;54.55;93334.16;4811182;29;20038;-90
2022/08/23 05:42:27;;;;;;;36.10;21.17;;;;;;;20.73;54.61;93328.97;4817036;29;20160;-92
2022/08/23 05:44:52;;;;;;;31.13;13.57;;;;;;;20.74;54.51;93329.72;4841576;29;20078;-90
2022/08/23 05:47:18;;;;;;;48.75;15.73;;;;;;;20.73;54.35;93333.72;4837237;29;20072;-87
2022/08/23 05:49:43;;;;;;;63.90;15.15;;;;;;;20.72;54.59;93335.75;4814050;29;20041;-87
2022/08/23 05:52:11;;;;;;;54.58;21.25;;;;;;;20.67;54.61;93336.56;4838080;29;20038;-92
2022/08/23 05:54:37;;;;;;;67.53;32.83;;;;;;;20.71;54.53;93337.00;4809694;29;20056;-93
2022/08/23 05:57:03;;;;;;;36.92;18.17;;;;;;;20.83;54.34;93337.53;4853432;29;20042;-90
2022/08/23 05:59:29;;;;;;;30.60;16.65;;;;;;;20.68;54.54;93342.81;4808187;29;20042;-87
2022/08/23 06:01:55;;;;;;;57.22;24.20;;;;;;;20.67;54.56;93339.31;4834959;29;20121;-92
2022/08/23 06:04:20;;;;;;;40.22;18.80;;;;;;;20.72;54.59;93341.22;4804293;29;20065;-92
2022/08/23 06:06:47;;;;;;;30.45;15.20;;;;;;;20.76;54.31;93338.19;4823246;29;20050;-91
2022/08/23 06:09:13;;;;;;;29.88;16.10;;;;;;;20.78;54.33;93349.38;4834634;29;20045;-89
2022/08/23 06:11:39;;;;;;;37.22;17.10;;;;;;;20.66;54.64;93346.09;4836116;29;20068;-91
2022/08/23 06:14:05;;;;;;;22.92;13.57;;;;;;;20.70;54.61;93349.25;4809878;29;20136;-85
2022/08/23 06:16:33;;;;;;;19.33;12.32;;;;;;;20.66;54.58;93348.09;4851456;29;20046;-88
2022/08/23 06:19:01;;;;;;;16.48;10.93;;;;;;;20.67;54.69;93342.06;4865028;29;20734;-86
2022/08/23 06:21:26;;;;;;;17.42;10.10;;;;;;;20.55;54.88;93346.28;4846252;29;20050;-87
2022/08/23 06:23:52;;;;;;;14.23;9.60;;;;;;;20.71;54.44;93350.00;4848103;29;20781;-86
2022/08/23 06:26:19;;;;;;;13.85;8.63;;;;;;;20.76;54.27;93360.91;4848516;29;20046;-92
2022/08/23 06:28:47;;;;;;;14.32;8.38;;;;;;;20.75;54.28;93356.66;4846716;29;20042;-88
2022/08/23 06:31:12;;;;;;;17.60;9.07;;;;;;;20.82;54.13;93361.50;4845129;29;20053;-88
2022/08/23 06:33:40;;;;;;;13.25;8.45;;;;;;;20.81;54.21;93356.53;4853410;29;20045;-86
2022/08/23 06:36:10;;;;;;;19.35;10.60;;;;;;;20.76;54.55;93363.66;4871461;29;20033;-90
2022/08/23 06:38:36;;;;;;;28.23;9.30;;;;;;;20.77;54.36;93354.13;4865812;29;20137;-88
2022/08/23 06:41:07;;;;;;;28.25;11.27;;;;;;;20.80;54.44;93368.81;4826735;29;20048;-88
2022/08/23 06:43:33;;;;;;;23.38;11.68;;;;;;;20.80;54.28;93366.78;4834492;29;20076;-89
2022/08/23 06:46:10;;;;;;;20.00;10.70;;;;;;;20.88;54.23;93364.91;4851468;29;20061;-90
2022/08/23 06:48:35;;;;;;;17.70;9.88;;;;;;;20.82;54.32;93375.25;4839639;29;20053;-93
2022/08/23 06:51:01;;;;;;;21.15;10.35;;;;;;;20.81;54.54;93375.78;4826925;29;20043;-89
2022/08/23 06:53:26;;;;;;;21.00;11.60;;;;;;;20.83;54.29;93373.25;4826488;29;20049;-89
2022/08/23 06:55:53;;;;;;;22.38;11.27;;;;;;;20.84;54.19;93377.47;4812238;29;20609;-88
2022/08/23 06:58:19;;;;;;;22.38;12.18;;;;;;;20.78;54.42;93369.34;4841614;29;20440;-88
2022/08/23 07:00:44;;;;;;;18.90;10.90;;;;;;;20.77;54.36;93373.38;4841989;29;20337;-88
2022/08/23 07:03:10;;;;;;;16.45;10.73;;;;;;;20.85;54.29;93374.19;4823795;29;20129;-91
2022/08/23 07:05:35;;;;;;;21.80;11.25;;;;;;;20.82;54.33;93380.75;4820178;29;20046;-90
2022/08/23 07:08:02;;;;;;;33.70;13.85;;;;;;;20.82;54.90;93383.50;4844006;29;20030;-89
2022/08/23 07:10:28;;;;;;;26.67;11.93;;;;;;;20.74;55.47;93387.41;4827223;29;20493;-89
2022/08/23 07:12:53;;;;;;;30.73;13.25;;;;;;;20.68;55.54;93381.25;4831548;29;20513;-89
2022/08/23 07:15:19;;;;;;;20.65;9.65;;;;;;;20.69;55.82;93375.25;4814653;29;20038;-89
2022/08/23 07:17:44;;;;;;;47.92;16.38;;;;;;;20.78;55.04;93387.84;4878613;29;20048;-88
2022/08/23 07:20:10;;;;;;;50.20;15.65;;;;;;;20.70;55.05;93384.97;4812497;29;20045;-91
2022/08/23 07:22:35;;;;;;;55.40;15.68;;;;;;;20.64;55.28;93392.56;4828600;29;20038;-91
2022/08/23 07:25:02;;;;;;;45.50;14.40;;;;;;;20.73;55.05;93386.66;4843638;29;20135;-89
2022/08/23 07:27:29;;;;;;;42.58;16.98;;;;;;;20.73;54.85;93394.16;4828638;29;20041;-92
2022/08/23 07:29:54;;;;;;;49.50;20.05;;;;;;;20.65;55.41;93388.56;4846651;29;20041;-90
2022/08/23 07:32:20;;;;;;;41.10;19.67;;;;;;;20.72;55.22;93390.69;4840438;29;20053;-93
2022/08/23 07:34:45;;;;;;;48.00;21.50;;;;;;;20.75;55.02;93388.88;4830514;29;20861;-90
2022/08/23 07:37:11;;;;;;;50.72;24.50;;;;;;;20.69;55.11;93388.97;4875700;29;20476;-88
2022/08/23 07:39:36;;;;;;;48.90;24.20;;;;;;;20.71;55.25;93386.44;4848103;29;20045;-91
2022/08/23 07:42:03;;;;;;;49.60;24.42;;;;;;;20.67;55.35;93391.50;4843159;29;20124;-90
2022/08/23 07:44:28;;;;;;;51.30;23.15;;;;;;;20.70;55.12;93403.47;4830956;29;20097;-90
2022/08/23 07:46:54;;;;;;;41.90;21.75;;;;;;;20.69;55.27;93394.47;4814860;29;20124;-91
2022/08/23 07:49:19;;;;;;;47.58;21.80;;;;;;;20.67;55.29;93405.25;4825969;29;20141;-90
2022/08/23 07:51:48;;;;;;;44.55;22.83;;;;;;;20.70;55.37;93400.72;4822394;29;20046;-91
2022/08/23 07:54:13;;;;;;;55.33;25.02;;;;;;;20.66;55.52;93395.53;4831503;29;20040;-93
2022/08/23 07:56:39;;;;;;;48.10;24.58;;;;;;;20.66;55.50;93401.00;4862901;29;20041;-90
2022/08/23 07:59:05;;;;;;;52.00;25.35;;;;;;;20.64;55.70;93416.53;4831908;29;20060;-88
2022/08/23 08:01:30;;;;;;;52.25;26.48;;;;;;;20.69;55.45;93415.72;4807442;29;20413;-92
2022/08/23 08:03:57;;;;;;;42.42;23.85;;;;;;;20.73;55.86;93416.88;4824758;29;20054;-90
2022/08/23 08:06:30;;;;;;;41.05;22.48;;;;;;;20.72;55.62;93417.41;4854966;29;20057;-89
2022/08/23 08:08:56;;;;;;;34.08;17.75;;;;;;;20.63;55.84;93417.81;4838821;29;20105;-90
2022/08/23 08:11:23;;;;;;;51.67;20.05;;;;;;;20.58;55.96;93421.38;4812813;29;20463;-92
2022/08/23 08:13:49;;;;;;;32.03;18.70;;;;;;;20.58;56.05;93422.13;4812049;29;20126;-91
2022/08/23 08:16:29;;;;;;;36.83;19.10;;;;;;;20.58;55.99;93418.63;4824168;29;20496;-88
2022/08/23 08:18:56;;;;;;;35.05;18.08;;;;;;;20.58;56.12;93429.63;4822901;29;20125;-87
2022/08/23 08:21:22;;;;;;;31.02;17.52;;;;;;;20.63;55.91;93428.78;4809670;29;20053;-89
2022/08/23 08:23:48;;;;;;;29.17;17.50;;;;;;;20.58;56.00;93429.63;4846552;29;20041;-87
2022/08/23 08:26:14;;;;;;;24.70;14.55;;;;;;;20.58;55.97;93426.88;4807637;29;20045;-88
2022/08/23 08:28:39;;;;;;;29.73;16.20;;;;;;;20.59;56.29;93437.34;4837553;29;20034;-90
2022/08/23 08:31:05;;;;;;;32.92;15.43;;;;;;;20.56;56.18;93438.41;4836189;29;20049;-88
2022/08/23 08:33:30;;;;;;;26.52;16.00;;;;;;;20.59;56.29;93440.09;4835112;29;20046;-92
2022/08/23 08:35:57;;;;;;;29.27;16.35;;;;;;;20.52;56.23;93435.22;4818240;29;20085;-91
2022/08/23 08:38:22;;;;;;;25.95;16.25;;;;;;;20.49;56.54;93439.00;4862491;29;20060;-91
2022/08/23 08:40:51;;;;;;;23.25;13.27;;;;;;;20.60;55.95;93444.31;4807687;29;20041;-91
2022/08/23 08:43:55;;;;;;;20.60;12.07;;;;;;;20.59;56.29;93440.09;4849910;29;20065;-90
2022/08/23 08:46:24;;;;;;;18.63;11.30;;;;;;;20.61;56.27;93445.78;4843177;29;20057;-89
2022/08/23 08:48:52;;;;;;;15.25;9.15;;;;;;;20.51;56.61;93442.72;4813412;29;20064;-88
2022/08/23 08:51:50;;;;;;;11.23;7.90;;;;;;;20.53;56.62;93442.19;4837272;29;20062;-89
2022/08/23 08:54:17;;;;;;;17.92;9.05;;;;;;;20.53;56.55;93456.66;4809960;29;20042;-90
2022/08/23 08:56:45;;;;;;;19.40;10.60;;;;;;;20.49;56.62;93458.97;4827508;29;20048;-89
2022/08/23 08:59:14;;;;;;;21.27;11.25;;;;;;;20.51;56.62;93450.97;4833249;29;20049;-91
2022/08/23 09:01:39;;;;;;;17.45;10.50;;;;;;;20.52;56.67;93457.19;4836849;29;20134;-88
2022/08/23 09:04:05;;;;;;;12.38;9.25;;;;;;;20.49;56.80;93461.72;4834614;29;20050;-90
2022/08/23 09:06:49;;;;;;;14.77;7.97;;;;;;;20.55;56.47;93453.41;4836586;29;20066;-90
2022/08/23 09:09:56;;;;;;;18.05;10.00;;;;;;;20.51;57.25;93461.19;4825683;29;20080;-90
2022/08/23 09:12:33;;;;;;;25.40;11.45;;;;;;;20.52;56.99;93465.44;4853332;29;20471;-91
2022/08/23 09:15:29;;;;;;;50.50;25.52;;;;;;;20.45;57.57;93464.03;4829128;29;20182;-91
2022/08/23 09:17:56;;;;;;;50.65;27.35;;;;;;;20.37;58.08;93463.16;4837669;29;20081;-89
2022/08/23 09:20:22;;;;;;;34.17;19.50;;;;;;;20.41;58.18;93466.34;4840786;29;20088;-90
2022/08/23 09:22:50;;;;;;;28.17;14.52;;;;;;;20.33;58.16;93470.19;4831078;29;20046;-88
2022/08/23 09:25:16;;;;;;;28.13;14.23;;;;;;;20.35;57.98;93468.38;4872120;29;20038;-88
2022/08/23 09:27:43;;;;;;;29.70;14.75;;;;;;;20.37;57.96;93473.38;4843212;29;20042;-89
2022/08/23 09:30:09;;;;;;;26.20;15.23;;;;;;;20.38;57.95;93464.63;4871192;29;20083;-91
2022/08/23 09:32:40;;;;;;;26.30;13.02;;;;;;;20.36;58.10;93471.88;4843947;29;20053;-90
2022/08/23 09:35:14;;;;;;;38.95;18.17;;;;;;;20.32;58.07;93474.19;4853389;29;20046;-88
2022/08/23 09:38:02;;;;;;;39.50;15.63;;;;;;;20.39;58.00;93473.59;4842003;29;20041;-89
2022/08/23 09:40:37;;;;;;;33.35;14.45;;;;;;;20.36;58.22;93472.63;4867352;29;20144;-89
2022/08/23 09:43:12;;;;;;;18.42;11.40;;;;;;;20.41;58.12;93469.06;4886110;29;20053;-87
2022/08/23 09:45:53;;;;;;;23.83;10.43;;;;;;;20.40;58.21;93466.84;4854207;29;20050;-89
2022/08/23 09:48:39;;;;;;;21.42;10.85;;;;;;;20.45;57.89;93477.00;4853651;29;20106;-91
2022/08/23 09:51:16;;;;;;;21.17;9.77;;;;;;;20.42;58.18;93475.31;4847839;29;20053;-87
2022/08/23 09:53:49;;;;;;;27.30;12.82;;;;;;;20.45;58.03;93474.28;4867720;29;20045;-89
2022/08/23 09:56:18;;;;;;;34.97;16.38;;;;;;;20.41;58.36;93476.56;4840226;29;20292;-89
2022/08/23 09:58:45;;;;;;;36.03;16.52;;;;;;;20.42;58.42;93473.31;4854579;29;20801;-93
2022/08/23 10:01:26;;;;;;;25.90;13.38;;;;;;;20.41;58.37;93473.81;4842187;29;20069;-91
2022/08/23 10:04:11;;;;;;;22.73;11.65;;;;;;;20.35;58.38;93473.88;4853319;29;20059;-90
2022/08/23 10:06:38;;;;;;;19.92;10.73;;;;;;;20.38;58.38;93474.88;4835674;29;20477;-91
2022/08/23 10:09:05;;;;;;;18.35;8.40;;;;;;;20.32;58.79;93474.94;4832307;29;20045;-90
2022/08/23 10:11:39;;;;;;;18.95;8.70;;;;;;;20.38;58.80;93474.88;4840595;29;20041;-90
2022/08/23 10:14:05;;;;;;;14.73;7.35;;;;;;;20.41;58.66;93482.06;4845637;29;20037;-91
2022/08/23 10:17:08;;;;;;;15.52;6.97;;;;;;;20.41;58.55;93477.31;4850677;29;20049;-90
2022/08/23 10:19:51;;;;;;;8.27;5.47;;;;;;;20.33;59.12;93476.44;4888538;29;20043;-89
2022/08/23 10:22:21;;;;;;;7.60;5.65;;;;;;;20.31;59.17;93481.69;4870708;29;20093;-91
2022/08/23 10:24:54;;;;;;;7.13;4.80;;;;;;;20.23;59.52;93483.53;4850663;29;20589;-93
2022/08/23 10:30:13;;;;;;;7.38;4.47;;;;;;;20.27;59.31;93475.00;4872430;29;20084;-90
2022/08/23 10:32:57;;;;;;;4.95;3.95;;;;;;;20.32;59.42;93474.94;4872847;29;20045;-92
2022/08/23 10:35:28;;;;;;;4.03;3.63;;;;;;;20.39;59.24;93470.84;4895669;29;20054;-90
2022/08/23 10:38:11;;;;;;;4.75;3.78;;;;;;;20.41;59.10;93466.34;4840599;29;20433;-89
2022/08/23 10:40:50;;;;;;;4.47;3.25;;;;;;;20.41;59.22;93477.31;4883473;29;20541;-89
2022/08/23 10:43:24;;;;;;;4.88;3.50;;;;;;;20.34;59.42;93468.94;4875774;29;20069;-89
2022/08/23 10:45:50;;;;;;;3.70;3.22;;;;;;;20.33;59.75;93481.19;4838985;29;20526;-89
2022/08/23 10:48:27;;;;;;;3.28;2.70;;;;;;;20.37;59.49;93473.38;4838782;29;20393;-90
2022/08/23 10:50:57;;;;;;;3.20;2.90;;;;;;;20.38;59.38;93470.13;4861508;29;20057;-88
2022/08/23 10:53:38;;;;;;;12.18;7.30;;;;;;;20.38;59.46;93478.34;4857464;29;20057;-89
2022/08/23 10:56:12;;;;;;;;;;;;;;;20.40;59.54;93488.81;4870926;29;20038;-89
2022/08/23 10:58:46;;;;;;;16.73;8.43;;;;;;;20.40;59.60;93494.31;4874295;29;20351;-92
2022/08/23 11:01:15;;;;;;;9.50;6.13;;;;;;;20.37;59.99;93495.34;4845350;29;20058;-90
2022/08/23 11:03:54;;;;;;;14.52;6.78;;;;;;;20.40;59.58;93497.78;4865956;29;20167;-90
2022/08/23 11:06:35;;;;;;;155.95;128.30;;;;;;;20.39;59.82;93493.56;4894436;29;20170;-89
2022/08/23 11:09:03;;;;;;;;;;;;;;;20.51;59.35;93497.66;4887908;29;20048;-90
2022/08/23 11:12:06;;;;;;;219.10;159.38;;;;;;;20.53;59.33;93494.38;4867885;29;19930;-91
2022/08/23 11:14:46;;;;;;;194.35;136.50;;;;;;;20.49;59.62;93504.91;4845749;29;20057;-90
2022/08/23 11:17:26;;;;;;;134.43;98.10;;;;;;;20.49;59.66;93502.19;4861840;29;20054;-92
2022/08/23 11:19:53;;;;;;;101.05;69.90;;;;;;;20.47;59.87;93505.44;4887150;29;20108;-90
2022/08/23 11:22:19;;;;;;;97.00;64.90;;;;;;;20.46;59.89;93512.19;4875730;29;20065;-90
2022/08/23 11:24:51;;;;;;;83.53;54.15;;;;;;;20.51;59.61;93502.41;4892483;29;20045;-92
2022/08/23 11:27:26;;;;;;;74.80;53.70;;;;;;;20.50;59.66;93503.66;4875613;29;20116;-90
2022/08/23 11:29:51;;;;;;;180.43;134.43;;;;;;;20.53;59.46;93497.13;4864285;29;20054;-92
2022/08/23 11:32:23;;;;;;;206.65;145.82;;;;;;;20.52;59.48;93503.88;4835895;29;20356;-91
2022/08/23 11:35:07;;;;;;;202.70;149.50;;;;;;;20.53;59.63;93508.09;4895268;29;20618;-92
2022/08/23 11:37:58;;;;;;;155.82;107.53;;;;;;;20.56;59.76;93506.31;4881005;29;20516;-93
2022/08/23 11:40:49;;;;;;;176.93;127.50;;;;;;;20.53;59.76;93508.84;4844778;29;20060;-90
2022/08/23 11:43:20;;;;;;;;;;;;;;;20.64;59.41;93510.66;4878038;29;20068;-94
2022/08/23 11:45:46;;;;;;;132.45;88.05;;;;;;;20.56;59.81;93517.31;4880826;29;20739;-92